sensor_id;sensor_type;location;lat;lon;timestamp;temperature;humidity
11762;DHT22;5938;47.098;15.474;2023-08-21T00:01:36;18.30;99.90
11762;DHT22;5938;47.098;15.474;2023-08-21T00:05:40;18.20;99.90
11762;DHT22;5938;47.098;15.474;2023-08-21T00:09:43;18.20;99.90
11762;DHT22;5938;47.098;15.474;2023-08-21T00:13:48;18.20;99.90
11762;DHT22;5938;47.098;15.474;2023-08-21T00:17:52;18.20;99.90
11762;DHT22;5938;47.098;15.474;2023-08-21T00:21:55;18.10;99.90
11762;DHT22;5938;47.098;15.474;2023-08-21T00:25:59;18.10;99.90
11762;DHT22;5938;47.098;15.474;2023-08-21T00:30:05;18.10;99.90
11762;DHT22;5938;47.098;15.474;2023-08-21T00:34:09;18.10;99.90
11762;DHT22;5938;47.098;15.474;2023-08-21T00:38:12;18.00;99.90
11762;DHT22;5938;47.098;15.474;2023-08-21T00:42:17;17.90;99.90
11762;DHT22;5938;47.098;15.474;2023-08-21T00:46:22;18.00;99.90
11762;DHT22;5938;47.098;15.474;2023-08-21T00:50:27;17.90;99.90
11762;DHT22;5938;47.098;15.474;2023-08-21T00:54:31;17.90;99.90
11762;DHT22;5938;47.098;15.474;2023-08-21T00:58:34;17.90;99.90
11762;DHT22;5938;47.098;15.474;2023-08-21T01:02:39;17.90;99.90
11762;DHT22;5938;47.098;15.474;2023-08-21T01:06:48;17.90;99.90
11762;DHT22;5938;47.098;15.474;2023-08-21T01:10:56;17.80;99.90
11762;DHT22;5938;47.098;15.474;2023-08-21T01:15:00;17.80;99.90
11762;DHT22;5938;47.098;15.474;2023-08-21T01:19:11;17.80;99.90
11762;DHT22;5938;47.098;15.474;2023-08-21T01:23:33;17.70;99.90
11762;DHT22;5938;47.098;15.474;2023-08-21T01:27:37;17.70;99.90
11762;DHT22;5938;47.098;15.474;2023-08-21T01:31:43;17.60;99.90
11762;DHT22;5938;47.098;15.474;2023-08-21T01:35:49;17.60;99.90
11762;DHT22;5938;47.098;15.474;2023-08-21T01:39:58;17.60;99.90
11762;DHT22;5938;47.098;15.474;2023-08-21T01:44:01;17.60;99.90
11762;DHT22;5938;47.098;15.474;2023-08-21T01:48:05;17.50;99.90
11762;DHT22;5938;47.098;15.474;2023-08-21T01:52:08;17.60;99.90
11762;DHT22;5938;47.098;15.474;2023-08-21T01:56:13;17.50;99.90
11762;DHT22;5938;47.098;15.474;2023-08-21T02:00:17;17.40;99.90
11762;DHT22;5938;47.098;15.474;2023-08-21T02:04:20;17.40;99.90
11762;DHT22;5938;47.098;15.474;2023-08-21T02:08:27;17.40;99.90
11762;DHT22;5938;47.098;15.474;2023-08-21T02:12:33;17.40;99.90
11762;DHT22;5938;47.098;15.474;2023-08-21T02:16:40;17.30;99.90
11762;DHT22;5938;47.098;15.474;2023-08-21T02:20:43;17.40;99.90
11762;DHT22;5938;47.098;15.474;2023-08-21T02:24:49;17.30;99.90
11762;DHT22;5938;47.098;15.474;2023-08-21T02:28:54;17.30;99.90
11762;DHT22;5938;47.098;15.474;2023-08-21T02:32:57;17.20;99.90
11762;DHT22;5938;47.098;15.474;2023-08-21T02:37:17;17.20;99.90
11762;DHT22;5938;47.098;15.474;2023-08-21T02:41:20;17.30;99.90
11762;DHT22;5938;47.098;15.474;2023-08-21T02:45:30;17.20;99.90
11762;DHT22;5938;47.098;15.474;2023-08-21T02:49:33;17.20;99.90
11762;DHT22;5938;47.098;15.474;2023-08-21T02:53:37;17.10;99.90
11762;DHT22;5938;47.098;15.474;2023-08-21T02:57:51;17.10;99.90
11762;DHT22;5938;47.098;15.474;2023-08-21T03:01:56;17.10;99.90
11762;DHT22;5938;47.098;15.474;2023-08-21T03:06:02;17.00;99.90
11762;DHT22;5938;47.098;15.474;2023-08-21T03:10:07;17.10;99.90
11762;DHT22;5938;47.098;15.474;2023-08-21T03:14:18;17.00;99.90
11762;DHT22;5938;47.098;15.474;2023-08-21T03:18:23;17.10;99.90
11762;DHT22;5938;47.098;15.474;2023-08-21T03:22:26;17.00;99.90
11762;DHT22;5938;47.098;15.474;2023-08-21T03:26:30;17.00;99.90
11762;DHT22;5938;47.098;15.474;2023-08-21T03:30:33;17.00;99.90
11762;DHT22;5938;47.098;15.474;2023-08-21T03:34:42;17.00;99.90
11762;DHT22;5938;47.098;15.474;2023-08-21T03:38:46;16.90;99.90
11762;DHT22;5938;47.098;15.474;2023-08-21T03:42:49;16.90;99.90
11762;DHT22;5938;47.098;15.474;2023-08-21T03:47:07;16.90;99.90
11762;DHT22;5938;47.098;15.474;2023-08-21T03:51:12;16.90;99.90
11762;DHT22;5938;47.098;15.474;2023-08-21T03:55:15;16.80;99.90
11762;DHT22;5938;47.098;15.474;2023-08-21T03:59:19;16.80;99.90
11762;DHT22;5938;47.098;15.474;2023-08-21T04:03:25;16.80;99.90
11762;DHT22;5938;47.098;15.474;2023-08-21T04:07:32;16.80;99.90
11762;DHT22;5938;47.098;15.474;2023-08-21T04:11:35;16.80;99.90
11762;DHT22;5938;47.098;15.474;2023-08-21T04:15:38;16.80;99.90
11762;DHT22;5938;47.098;15.474;2023-08-21T04:19:43;16.80;99.90
11762;DHT22;5938;47.098;15.474;2023-08-21T04:23:48;16.80;99.90
11762;DHT22;5938;47.098;15.474;2023-08-21T04:27:51;16.80;99.90
11762;DHT22;5938;47.098;15.474;2023-08-21T04:31:56;16.80;99.90
11762;DHT22;5938;47.098;15.474;2023-08-21T04:35:59;16.80;99.90
11762;DHT22;5938;47.098;15.474;2023-08-21T04:40:05;16.80;99.90
11762;DHT22;5938;47.098;15.474;2023-08-21T04:44:09;16.90;99.90
11762;DHT22;5938;47.098;15.474;2023-08-21T04:48:13;16.90;99.90
11762;DHT22;5938;47.098;15.474;2023-08-21T04:52:16;17.00;99.90
11762;DHT22;5938;47.098;15.474;2023-08-21T04:56:28;17.00;99.90
11762;DHT22;5938;47.098;15.474;2023-08-21T05:00:31;17.10;99.90
11762;DHT22;5938;47.098;15.474;2023-08-21T05:04:35;17.20;99.90
11762;DHT22;5938;47.098;15.474;2023-08-21T05:08:39;17.20;99.90
11762;DHT22;5938;47.098;15.474;2023-08-21T05:12:44;17.30;99.90
11762;DHT22;5938;47.098;15.474;2023-08-21T05:16:48;17.40;99.90
11762;DHT22;5938;47.098;15.474;2023-08-21T05:20:54;17.50;99.90
11762;DHT22;5938;47.098;15.474;2023-08-21T05:24:58;17.60;99.90
11762;DHT22;5938;47.098;15.474;2023-08-21T05:29:03;17.60;99.90
11762;DHT22;5938;47.098;15.474;2023-08-21T05:33:06;17.70;99.90
11762;DHT22;5938;47.098;15.474;2023-08-21T05:37:10;17.80;99.90
11762;DHT22;5938;47.098;15.474;2023-08-21T05:41:13;17.90;99.90
11762;DHT22;5938;47.098;15.474;2023-08-21T05:45:18;18.00;99.90
11762;DHT22;5938;47.098;15.474;2023-08-21T05:49:21;18.10;99.90
11762;DHT22;5938;47.098;15.474;2023-08-21T05:53:25;18.30;99.90
11762;DHT22;5938;47.098;15.474;2023-08-21T05:57:28;18.40;99.90
11762;DHT22;5938;47.098;15.474;2023-08-21T06:01:33;18.50;99.90
11762;DHT22;5938;47.098;15.474;2023-08-21T06:05:36;18.70;99.90
11762;DHT22;5938;47.098;15.474;2023-08-21T06:09:39;18.90;99.90
11762;DHT22;5938;47.098;15.474;2023-08-21T06:13:44;19.00;99.90
11762;DHT22;5938;47.098;15.474;2023-08-21T06:17:49;19.20;99.90
11762;DHT22;5938;47.098;15.474;2023-08-21T06:21:52;19.40;99.90
11762;DHT22;5938;47.098;15.474;2023-08-21T06:25:56;19.60;99.90
11762;DHT22;5938;47.098;15.474;2023-08-21T06:29:59;19.70;99.90
11762;DHT22;5938;47.098;15.474;2023-08-21T06:34:04;19.90;99.90
11762;DHT22;5938;47.098;15.474;2023-08-21T06:38:07;20.10;99.90
11762;DHT22;5938;47.098;15.474;2023-08-21T06:42:10;20.30;99.90
11762;DHT22;5938;47.098;15.474;2023-08-21T06:46:15;20.50;99.90
11762;DHT22;5938;47.098;15.474;2023-08-21T06:50:20;20.70;99.90
11762;DHT22;5938;47.098;15.474;2023-08-21T06:54:23;21.00;99.90
11762;DHT22;5938;47.098;15.474;2023-08-21T06:58:27;21.20;99.90
11762;DHT22;5938;47.098;15.474;2023-08-21T07:02:30;21.60;99.90
11762;DHT22;5938;47.098;15.474;2023-08-21T07:06:36;21.80;99.90
11762;DHT22;5938;47.098;15.474;2023-08-21T07:10:39;22.00;99.90
11762;DHT22;5938;47.098;15.474;2023-08-21T07:14:42;22.40;99.90
11762;DHT22;5938;47.098;15.474;2023-08-21T07:18:46;22.70;99.90
11762;DHT22;5938;47.098;15.474;2023-08-21T07:22:51;23.10;99.90
11762;DHT22;5938;47.098;15.474;2023-08-21T07:26:54;23.50;99.90
11762;DHT22;5938;47.098;15.474;2023-08-21T07:30:58;23.80;99.90
11762;DHT22;5938;47.098;15.474;2023-08-21T07:35:02;24.10;99.90
11762;DHT22;5938;47.098;15.474;2023-08-21T07:39:07;24.20;99.90
11762;DHT22;5938;47.098;15.474;2023-08-21T07:43:10;24.50;99.90
11762;DHT22;5938;47.098;15.474;2023-08-21T07:47:13;24.60;99.90
11762;DHT22;5938;47.098;15.474;2023-08-21T07:51:17;24.80;99.90
11762;DHT22;5938;47.098;15.474;2023-08-21T07:55:22;25.10;99.90
11762;DHT22;5938;47.098;15.474;2023-08-21T07:59:25;25.50;99.90
11762;DHT22;5938;47.098;15.474;2023-08-21T08:03:29;25.90;99.90
11762;DHT22;5938;47.098;15.474;2023-08-21T08:07:32;26.10;99.90
11762;DHT22;5938;47.098;15.474;2023-08-21T08:11:37;26.40;99.90
11762;DHT22;5938;47.098;15.474;2023-08-21T08:15:41;26.70;99.90
11762;DHT22;5938;47.098;15.474;2023-08-21T08:19:44;27.30;99.90
11762;DHT22;5938;47.098;15.474;2023-08-21T08:23:48;27.70;99.90
11762;DHT22;5938;47.098;15.474;2023-08-21T08:27:53;28.10;99.90
11762;DHT22;5938;47.098;15.474;2023-08-21T08:31:57;28.50;98.60
11762;DHT22;5938;47.098;15.474;2023-08-21T08:36:00;29.40;95.30
11762;DHT22;5938;47.098;15.474;2023-08-21T08:40:05;30.00;93.00
11762;DHT22;5938;47.098;15.474;2023-08-21T08:44:10;31.10;91.20
11762;DHT22;5938;47.098;15.474;2023-08-21T08:48:16;32.40;87.40
11762;DHT22;5938;47.098;15.474;2023-08-21T08:52:21;34.60;85.00
11762;DHT22;5938;47.098;15.474;2023-08-21T08:56:25;36.00;78.20
11762;DHT22;5938;47.098;15.474;2023-08-21T09:00:35;37.20;74.90
11762;DHT22;5938;47.098;15.474;2023-08-21T09:04:53;38.30;71.60
11762;DHT22;5938;47.098;15.474;2023-08-21T09:09:06;39.40;69.40
11762;DHT22;5938;47.098;15.474;2023-08-21T09:13:35;38.30;65.20
11762;DHT22;5938;47.098;15.474;2023-08-21T09:18:16;37.00;67.70
11762;DHT22;5938;47.098;15.474;2023-08-21T09:22:42;37.70;67.50
11762;DHT22;5938;47.098;15.474;2023-08-21T09:27:26;37.60;65.70
11762;DHT22;5938;47.098;15.474;2023-08-21T09:31:56;39.20;62.70
11762;DHT22;5938;47.098;15.474;2023-08-21T09:36:03;40.10;58.40
11762;DHT22;5938;47.098;15.474;2023-08-21T09:40:24;39.50;59.40
11762;DHT22;5938;47.098;15.474;2023-08-21T09:44:47;40.30;55.20
11762;DHT22;5938;47.098;15.474;2023-08-21T09:49:19;40.50;56.70
11762;DHT22;5938;47.098;15.474;2023-08-21T09:53:48;40.60;59.70
11762;DHT22;5938;47.098;15.474;2023-08-21T09:58:23;39.40;56.70
11762;DHT22;5938;47.098;15.474;2023-08-21T10:02:35;40.60;56.10
11762;DHT22;5938;47.098;15.474;2023-08-21T10:06:53;39.60;55.70
11762;DHT22;5938;47.098;15.474;2023-08-21T10:11:11;40.20;54.40
11762;DHT22;5938;47.098;15.474;2023-08-21T10:15:22;39.90;58.00
11762;DHT22;5938;47.098;15.474;2023-08-21T10:19:39;40.20;57.10
11762;DHT22;5938;47.098;15.474;2023-08-21T10:23:55;40.20;56.20
11762;DHT22;5938;47.098;15.474;2023-08-21T10:28:07;40.50;56.60
11762;DHT22;5938;47.098;15.474;2023-08-21T10:32:11;40.70;55.30
11762;DHT22;5938;47.098;15.474;2023-08-21T10:36:40;41.00;55.30
11762;DHT22;5938;47.098;15.474;2023-08-21T10:41:26;40.60;55.90
11762;DHT22;5938;47.098;15.474;2023-08-21T10:45:54;40.50;54.30
11762;DHT22;5938;47.098;15.474;2023-08-21T10:50:19;40.40;53.90
11762;DHT22;5938;47.098;15.474;2023-08-21T10:54:50;41.40;53.60
11762;DHT22;5938;47.098;15.474;2023-08-21T10:59:05;42.90;54.60
11762;DHT22;5938;47.098;15.474;2023-08-21T11:03:45;41.90;52.20
11762;DHT22;5938;47.098;15.474;2023-08-21T11:08:14;43.40;49.10
11762;DHT22;5938;47.098;15.474;2023-08-21T11:12:26;41.00;51.50
11762;DHT22;5938;47.098;15.474;2023-08-21T11:16:42;42.90;49.00
11762;DHT22;5938;47.098;15.474;2023-08-21T11:20:47;43.90;47.70
11762;DHT22;5938;47.098;15.474;2023-08-21T11:25:09;44.50;48.30
11762;DHT22;5938;47.098;15.474;2023-08-21T11:29:20;44.40;46.60
11762;DHT22;5938;47.098;15.474;2023-08-21T11:33:29;43.30;43.10
11762;DHT22;5938;47.098;15.474;2023-08-21T11:37:53;44.20;45.70
11762;DHT22;5938;47.098;15.474;2023-08-21T11:42:13;44.50;43.60
11762;DHT22;5938;47.098;15.474;2023-08-21T11:46:25;45.90;43.00
11762;DHT22;5938;47.098;15.474;2023-08-21T11:50:32;46.60;43.10
11762;DHT22;5938;47.098;15.474;2023-08-21T11:55:15;44.50;42.90
11762;DHT22;5938;47.098;15.474;2023-08-21T11:59:36;45.40;43.60
11762;DHT22;5938;47.098;15.474;2023-08-21T12:03:57;45.10;44.40
11762;DHT22;5938;47.098;15.474;2023-08-21T12:08:05;45.60;41.40
11762;DHT22;5938;47.098;15.474;2023-08-21T12:12:34;47.20;39.80
11762;DHT22;5938;47.098;15.474;2023-08-21T12:16:59;47.10;39.80
11762;DHT22;5938;47.098;15.474;2023-08-21T12:21:18;46.90;39.60
11762;DHT22;5938;47.098;15.474;2023-08-21T12:25:28;46.50;41.00
11762;DHT22;5938;47.098;15.474;2023-08-21T12:29:43;46.90;40.50
11762;DHT22;5938;47.098;15.474;2023-08-21T12:38:11;47.80;37.20
11762;DHT22;5938;47.098;15.474;2023-08-21T12:42:32;47.60;40.10
11762;DHT22;5938;47.098;15.474;2023-08-21T12:46:39;48.40;39.60
11762;DHT22;5938;47.098;15.474;2023-08-21T12:50:45;48.60;38.60
11762;DHT22;5938;47.098;15.474;2023-08-21T12:55:02;48.40;40.60
11762;DHT22;5938;47.098;15.474;2023-08-21T12:59:08;49.40;39.60
11762;DHT22;5938;47.098;15.474;2023-08-21T13:03:19;49.10;37.80
11762;DHT22;5938;47.098;15.474;2023-08-21T13:07:33;48.30;39.10
11762;DHT22;5938;47.098;15.474;2023-08-21T13:11:36;48.10;39.00
11762;DHT22;5938;47.098;15.474;2023-08-21T13:15:40;48.10;40.30
11762;DHT22;5938;47.098;15.474;2023-08-21T13:19:47;48.00;37.00
11762;DHT22;5938;47.098;15.474;2023-08-21T13:23:51;47.30;37.90
11762;DHT22;5938;47.098;15.474;2023-08-21T13:27:55;46.30;39.20
11762;DHT22;5938;47.098;15.474;2023-08-21T13:32:00;48.20;40.50
11762;DHT22;5938;47.098;15.474;2023-08-21T13:36:05;48.70;39.80
11762;DHT22;5938;47.098;15.474;2023-08-21T13:40:09;49.30;36.80
11762;DHT22;5938;47.098;15.474;2023-08-21T13:44:15;48.30;37.60
11762;DHT22;5938;47.098;15.474;2023-08-21T13:48:21;49.60;37.20
11762;DHT22;5938;47.098;15.474;2023-08-21T13:52:26;49.70;37.90
11762;DHT22;5938;47.098;15.474;2023-08-21T13:56:29;49.90;34.30
11762;DHT22;5938;47.098;15.474;2023-08-21T14:00:33;49.80;35.40
11762;DHT22;5938;47.098;15.474;2023-08-21T14:04:37;48.70;36.00
11762;DHT22;5938;47.098;15.474;2023-08-21T14:08:41;46.40;39.30
11762;DHT22;5938;47.098;15.474;2023-08-21T14:12:45;46.90;39.60
11762;DHT22;5938;47.098;15.474;2023-08-21T14:16:49;46.30;39.20
11762;DHT22;5938;47.098;15.474;2023-08-21T14:20:52;47.00;39.70
11762;DHT22;5938;47.098;15.474;2023-08-21T14:24:58;47.30;39.90
11762;DHT22;5938;47.098;15.474;2023-08-21T14:29:22;46.90;39.70
11762;DHT22;5938;47.098;15.474;2023-08-21T14:33:28;46.60;39.40
11762;DHT22;5938;47.098;15.474;2023-08-21T14:37:31;47.20;42.20
11762;DHT22;5938;47.098;15.474;2023-08-21T14:41:40;47.60;41.30
11762;DHT22;5938;47.098;15.474;2023-08-21T14:45:44;48.50;38.80
11762;DHT22;5938;47.098;15.474;2023-08-21T14:49:49;48.20;41.30
11762;DHT22;5938;47.098;15.474;2023-08-21T14:53:53;48.20;39.90
11762;DHT22;5938;47.098;15.474;2023-08-21T14:57:58;47.00;39.70
11762;DHT22;5938;47.098;15.474;2023-08-21T15:06:32;46.80;42.90
11762;DHT22;5938;47.098;15.474;2023-08-21T15:10:38;46.90;43.10
11762;DHT22;5938;47.098;15.474;2023-08-21T15:29:26;44.50;45.70
11762;DHT22;5938;47.098;15.474;2023-08-21T15:33:29;40.60;54.60
11762;DHT22;5938;47.098;15.474;2023-08-21T15:37:35;38.10;59.50
11762;DHT22;5938;47.098;15.474;2023-08-21T15:41:39;36.00;62.50
11762;DHT22;5938;47.098;15.474;2023-08-21T15:45:45;34.40;67.10
11762;DHT22;5938;47.098;15.474;2023-08-21T15:49:49;33.10;73.10
11762;DHT22;5938;47.098;15.474;2023-08-21T15:53:53;32.40;77.90
11762;DHT22;5938;47.098;15.474;2023-08-21T15:57:57;31.70;80.60
11762;DHT22;5938;47.098;15.474;2023-08-21T16:02:02;31.10;81.30
11762;DHT22;5938;47.098;15.474;2023-08-21T16:06:06;30.80;83.10
11762;DHT22;5938;47.098;15.474;2023-08-21T16:10:10;30.50;85.10
11762;DHT22;5938;47.098;15.474;2023-08-21T16:14:15;30.30;84.90
11762;DHT22;5938;47.098;15.474;2023-08-21T16:18:21;30.10;87.30
11762;DHT22;5938;47.098;15.474;2023-08-21T16:22:26;30.00;89.40
11762;DHT22;5938;47.098;15.474;2023-08-21T16:26:31;29.70;90.90
11762;DHT22;5938;47.098;15.474;2023-08-21T16:30:35;29.40;90.50
11762;DHT22;5938;47.098;15.474;2023-08-21T16:34:40;29.20;92.10
11762;DHT22;5938;47.098;15.474;2023-08-21T16:38:44;29.00;93.60
11762;DHT22;5938;47.098;15.474;2023-08-21T16:42:48;28.90;94.60
11762;DHT22;5938;47.098;15.474;2023-08-21T16:46:51;28.70;95.40
11762;DHT22;5938;47.098;15.474;2023-08-21T16:50:59;28.40;96.40
11762;DHT22;5938;47.098;15.474;2023-08-21T16:55:04;28.20;96.70
11762;DHT22;5938;47.098;15.474;2023-08-21T16:59:10;28.10;97.40
11762;DHT22;5938;47.098;15.474;2023-08-21T17:08:06;27.80;97.40
11762;DHT22;5938;47.098;15.474;2023-08-21T17:12:12;27.70;98.40
11762;DHT22;5938;47.098;15.474;2023-08-21T17:16:17;27.50;98.30
11762;DHT22;5938;47.098;15.474;2023-08-21T17:20:21;27.40;98.90
11762;DHT22;5938;47.098;15.474;2023-08-21T17:24:30;27.30;99.80
11762;DHT22;5938;47.098;15.474;2023-08-21T17:34:00;26.80;99.90
11762;DHT22;5938;47.098;15.474;2023-08-21T17:38:04;26.70;99.90
11762;DHT22;5938;47.098;15.474;2023-08-21T17:47:29;26.30;99.90
11762;DHT22;5938;47.098;15.474;2023-08-21T17:51:35;26.10;99.90
11762;DHT22;5938;47.098;15.474;2023-08-21T17:55:40;25.80;99.90
11762;DHT22;5938;47.098;15.474;2023-08-21T17:59:44;25.60;99.90
11762;DHT22;5938;47.098;15.474;2023-08-21T18:03:51;25.30;99.90
11762;DHT22;5938;47.098;15.474;2023-08-21T18:07:56;25.00;99.90
11762;DHT22;5938;47.098;15.474;2023-08-21T18:12:02;24.80;99.90
11762;DHT22;5938;47.098;15.474;2023-08-21T18:16:09;24.60;99.90
11762;DHT22;5938;47.098;15.474;2023-08-21T18:20:47;24.30;99.90
11762;DHT22;5938;47.098;15.474;2023-08-21T18:24:54;24.20;99.90
11762;DHT22;5938;47.098;15.474;2023-08-21T18:29:02;24.10;99.90
11762;DHT22;5938;47.098;15.474;2023-08-21T18:33:31;24.00;99.90
11762;DHT22;5938;47.098;15.474;2023-08-21T18:37:42;23.80;99.90
11762;DHT22;5938;47.098;15.474;2023-08-21T18:41:49;23.80;99.90
11762;DHT22;5938;47.098;15.474;2023-08-21T18:45:58;23.60;99.90
11762;DHT22;5938;47.098;15.474;2023-08-21T18:50:07;23.50;99.90
11762;DHT22;5938;47.098;15.474;2023-08-21T18:54:15;23.40;99.90
11762;DHT22;5938;47.098;15.474;2023-08-21T18:58:27;23.20;99.90
11762;DHT22;5938;47.098;15.474;2023-08-21T19:03:38;23.20;99.90
11762;DHT22;5938;47.098;15.474;2023-08-21T19:08:28;23.00;99.90
11762;DHT22;5938;47.098;15.474;2023-08-21T19:17:18;22.80;99.90
11762;DHT22;5938;47.098;15.474;2023-08-21T19:21:24;22.70;99.90
11762;DHT22;5938;47.098;15.474;2023-08-21T19:25:28;22.60;99.90
11762;DHT22;5938;47.098;15.474;2023-08-21T19:29:34;22.50;99.90
11762;DHT22;5938;47.098;15.474;2023-08-21T19:33:40;22.40;99.90
11762;DHT22;5938;47.098;15.474;2023-08-21T19:37:45;22.30;99.90
11762;DHT22;5938;47.098;15.474;2023-08-21T19:41:49;22.20;99.90
11762;DHT22;5938;47.098;15.474;2023-08-21T19:45:55;22.20;99.90
11762;DHT22;5938;47.098;15.474;2023-08-21T19:50:02;22.10;99.90
11762;DHT22;5938;47.098;15.474;2023-08-21T19:54:07;22.00;99.90
11762;DHT22;5938;47.098;15.474;2023-08-21T19:58:12;21.90;99.90
11762;DHT22;5938;47.098;15.474;2023-08-21T20:02:17;21.80;99.90
11762;DHT22;5938;47.098;15.474;2023-08-21T20:06:23;21.80;99.90
11762;DHT22;5938;47.098;15.474;2023-08-21T20:10:28;21.70;99.90
11762;DHT22;5938;47.098;15.474;2023-08-21T20:14:32;21.60;99.90
11762;DHT22;5938;47.098;15.474;2023-08-21T20:18:36;21.50;99.90
11762;DHT22;5938;47.098;15.474;2023-08-21T20:22:42;21.40;99.90
11762;DHT22;5938;47.098;15.474;2023-08-21T20:26:51;21.40;99.90
11762;DHT22;5938;47.098;15.474;2023-08-21T20:31:00;21.40;99.90
11762;DHT22;5938;47.098;15.474;2023-08-21T20:35:04;21.30;99.90
11762;DHT22;5938;47.098;15.474;2023-08-21T20:39:10;21.20;99.90
11762;DHT22;5938;47.098;15.474;2023-08-21T20:43:15;21.20;99.90
11762;DHT22;5938;47.098;15.474;2023-08-21T20:47:19;21.10;99.90
11762;DHT22;5938;47.098;15.474;2023-08-21T20:51:26;21.00;99.90
11762;DHT22;5938;47.098;15.474;2023-08-21T20:55:33;21.00;99.90
11762;DHT22;5938;47.098;15.474;2023-08-21T20:59:37;20.90;99.90
11762;DHT22;5938;47.098;15.474;2023-08-21T21:03:41;20.80;99.90
11762;DHT22;5938;47.098;15.474;2023-08-21T21:07:44;20.80;99.90
11762;DHT22;5938;47.098;15.474;2023-08-21T21:11:49;20.70;99.90
11762;DHT22;5938;47.098;15.474;2023-08-21T21:15:52;20.70;99.90
11762;DHT22;5938;47.098;15.474;2023-08-21T21:19:56;20.60;99.90
11762;DHT22;5938;47.098;15.474;2023-08-21T21:23:59;20.50;99.90
11762;DHT22;5938;47.098;15.474;2023-08-21T21:28:04;20.50;99.90
11762;DHT22;5938;47.098;15.474;2023-08-21T21:32:08;20.40;99.90
11762;DHT22;5938;47.098;15.474;2023-08-21T21:36:11;20.40;99.90
11762;DHT22;5938;47.098;15.474;2023-08-21T21:40:15;20.30;99.90
11762;DHT22;5938;47.098;15.474;2023-08-21T21:44:20;20.30;99.90
11762;DHT22;5938;47.098;15.474;2023-08-21T21:48:23;20.20;99.90
11762;DHT22;5938;47.098;15.474;2023-08-21T21:52:26;20.20;99.90
11762;DHT22;5938;47.098;15.474;2023-08-21T21:56:30;20.10;99.90
11762;DHT22;5938;47.098;15.474;2023-08-21T22:00:34;20.00;99.90
11762;DHT22;5938;47.098;15.474;2023-08-21T22:04:38;20.00;99.90
11762;DHT22;5938;47.098;15.474;2023-08-21T22:08:41;20.00;99.90
11762;DHT22;5938;47.098;15.474;2023-08-21T22:12:44;19.90;99.90
11762;DHT22;5938;47.098;15.474;2023-08-21T22:16:50;19.90;99.90
11762;DHT22;5938;47.098;15.474;2023-08-21T22:20:54;19.80;99.90
11762;DHT22;5938;47.098;15.474;2023-08-21T22:24:58;19.70;99.90
11762;DHT22;5938;47.098;15.474;2023-08-21T22:29:01;19.70;99.90
11762;DHT22;5938;47.098;15.474;2023-08-21T22:33:06;19.70;99.90
11762;DHT22;5938;47.098;15.474;2023-08-21T22:37:11;19.60;99.90
11762;DHT22;5938;47.098;15.474;2023-08-21T22:41:14;19.50;99.90
11762;DHT22;5938;47.098;15.474;2023-08-21T22:45:18;19.50;99.90
11762;DHT22;5938;47.098;15.474;2023-08-21T22:49:23;19.50;99.90
11762;DHT22;5938;47.098;15.474;2023-08-21T22:53:26;19.40;99.90
11762;DHT22;5938;47.098;15.474;2023-08-21T22:57:30;19.30;99.90
11762;DHT22;5938;47.098;15.474;2023-08-21T23:01:33;19.30;99.90
11762;DHT22;5938;47.098;15.474;2023-08-21T23:05:38;19.30;99.90
11762;DHT22;5938;47.098;15.474;2023-08-21T23:09:42;19.20;99.90
11762;DHT22;5938;47.098;15.474;2023-08-21T23:13:45;19.20;99.90
11762;DHT22;5938;47.098;15.474;2023-08-21T23:17:52;19.20;99.90
11762;DHT22;5938;47.098;15.474;2023-08-21T23:21:59;19.00;99.90
11762;DHT22;5938;47.098;15.474;2023-08-21T23:26:02;19.10;99.90
11762;DHT22;5938;47.098;15.474;2023-08-21T23:30:07;19.00;99.90
11762;DHT22;5938;47.098;15.474;2023-08-21T23:34:11;19.00;99.90
11762;DHT22;5938;47.098;15.474;2023-08-21T23:38:16;18.90;99.90
11762;DHT22;5938;47.098;15.474;2023-08-21T23:42:21;18.90;99.90
11762;DHT22;5938;47.098;15.474;2023-08-21T23:46:24;18.90;99.90
11762;DHT22;5938;47.098;15.474;2023-08-21T23:50:28;18.90;99.90
11762;DHT22;5938;47.098;15.474;2023-08-21T23:54:34;18.80;99.90
11762;DHT22;5938;47.098;15.474;2023-08-21T23:58:38;18.80;99.90
